Time;durP1;ratioP1;P1;durP2;ratioP2;P2;SDS_P1;SDS_P2;PMS_P1;PMS_P2;Temp;Humidity;BMP_temperature;BMP_pressure;BME280_temperature;BME280_humidity;BME280_pressure;Samples;Min_cycle;Max_cycle;Signal;HPM_P1;HPM_P2
2021/04/13 00:01:10;;;;;;;7.22;2.60;;;14.80;99.90;;;;;;4962651;28;20038;-55
2021/04/13 00:03:43;;;;;;;3.85;2.53;;;14.80;99.90;;;;;;4940576;28;20038;-57
2021/04/13 00:06:12;;;;;;;3.55;2.45;;;14.80;99.90;;;;;;4972626;28;20047;-51
2021/04/13 00:08:39;;;;;;;4.20;2.10;;;14.50;99.90;;;;;;4972473;28;20427;-53
2021/04/13 00:11:07;;;;;;;5.60;2.72;;;14.40;99.90;;;;;;4972607;28;20093;-60
2021/04/13 00:13:33;;;;;;;4.35;2.60;;;14.50;99.90;;;;;;4972613;28;20034;-52
2021/04/13 00:16:10;;;;;;;3.42;2.42;;;14.20;99.90;;;;;;4972085;28;20544;-52
2021/04/13 00:18:39;;;;;;;2.83;2.17;;;13.90;99.90;;;;;;4972696;28;20446;-60
2021/04/13 00:21:07;;;;;;;5.05;3.03;;;;;;;;;;4981377;28;20041;-56
2021/04/13 00:23:33;;;;;;;4.32;2.80;;;;;;;;;;4979452;28;20035;-58
2021/04/13 00:26:08;;;;;;;7.45;3.95;;;13.10;99.90;;;;;;4998116;28;20049;-58
2021/04/13 00:28:41;;;;;;;4.75;3.53;;;13.10;99.90;;;;;;4998239;28;20061;-54
2021/04/13 00:31:08;;;;;;;4.70;2.90;;;12.80;99.90;;;;;;4976225;28;20082;-60
2021/04/13 00:33:36;;;;;;;6.43;2.50;;;;;;;;;;4995850;28;20057;-58
2021/04/13 00:36:09;;;;;;;2.42;1.45;;;12.50;99.90;;;;;;4995521;28;20524;-62
2021/04/13 00:38:48;;;;;;;5.30;3.40;;;12.20;99.90;;;;;;4964152;28;20364;-60
2021/04/13 00:41:24;;;;;;;4.57;3.75;;;12.20;99.90;;;;;;4995815;28;20039;-60
2021/04/13 00:43:53;;;;;;;4.35;2.65;;;12.10;99.90;;;;;;4962861;28;20038;-57
2021/04/13 00:46:27;;;;;;;6.00;3.33;;;12.00;99.90;;;;;;4993281;28;20077;-56
2021/04/13 00:48:56;;;;;;;6.18;4.03;;;;;;;;;;4995510;28;20133;-58
2021/04/13 00:51:28;;;;;;;5.80;3.20;;;;;;;;;;4995126;28;20116;-56
2021/04/13 00:54:06;;;;;;;5.75;3.83;;;;;;;;;;4962782;28;20121;-61
2021/04/13 00:56:34;;;;;;;7.15;4.35;;;12.20;99.90;;;;;;4995473;28;20078;-61
2021/04/13 00:59:16;;;;;;;6.63;2.75;;;12.00;99.90;;;;;;4995006;28;20547;-61
2021/04/13 01:01:43;;;;;;;6.53;4.80;;;;;;;;;;4974479;28;20053;-56
2021/04/13 01:04:16;;;;;;;3.67;1.50;;;;;;;;;;5016865;28;20041;-51
2021/04/13 01:06:42;;;;;;;3.42;2.20;;;;;;;;;;5016789;28;20076;-60
2021/04/13 01:09:24;;;;;;;3.15;2.38;;;11.30;99.90;;;;;;5016880;28;20025;-58
2021/04/13 01:11:56;;;;;;;4.13;2.88;;;11.10;99.90;;;;;;5016916;28;20034;-56
2021/04/13 01:14:24;;;;;;;2.65;2.28;;;;;;;;;;5016770;28;20025;-63
2021/04/13 01:16:55;;;;;;;3.83;2.10;;;;;;;;;;5033733;28;20168;-52
2021/04/13 01:19:36;;;;;;;1.65;1.40;;;;;;;;;;5036473;28;20574;-64
2021/04/13 01:22:24;;;;;;;3.35;2.55;;;;;;;;;;5036121;28;20082;-60
2021/04/13 01:24:52;;;;;;;3.92;3.15;;;;;;;;;;5036252;28;20488;-53
2021/04/13 01:27:21;;;;;;;3.42;2.65;;;10.60;99.90;;;;;;5036221;28;20480;-65
2021/04/13 01:29:48;;;;;;;3.33;2.38;;;;;;;;;;5036033;28;20029;-57
2021/04/13 01:32:16;;;;;;;2.88;2.15;;;10.50;99.90;;;;;;5036173;28;20100;-54
2021/04/13 01:34:45;;;;;;;3.35;2.63;;;;;;;;;;4974240;28;20428;-61
2021/04/13 01:42:41;;;;;;;4.40;2.90;;;10.30;99.90;;;;;;4975228;28;20070;-66
2021/04/13 01:45:16;;;;;;;1.42;1.25;;;10.40;99.90;;;;;;4974638;28;20438;-54
2021/04/13 01:47:45;;;;;;;4.07;2.50;;;10.10;99.90;;;;;;4974973;28;20038;-54
2021/04/13 01:50:22;;;;;;;3.33;1.52;;;10.00;99.90;;;;;;4942385;28;20042;-55
2021/04/13 01:52:51;;;;;;;3.17;2.35;;;9.80;99.90;;;;;;4974601;28;20483;-53
2021/04/13 01:55:25;;;;;;;1.33;1.20;;;;;;;;;;4974704;28;20039;-59
2021/04/13 01:58:16;;;;;;;3.40;2.55;;;9.80;99.90;;;;;;4942339;28;20031;-56
2021/04/13 02:00:47;;;;;;;2.65;1.90;;;9.80;99.90;;;;;;4926253;28;20035;-47
2021/04/13 02:03:18;;;;;;;4.65;3.20;;;9.80;99.90;;;;;;4958632;28;20034;-51
2021/04/13 02:05:50;;;;;;;4.50;2.65;;;9.90;99.90;;;;;;4975220;28;20037;-60
2021/04/13 02:08:26;;;;;;;2.90;1.77;;;10.00;99.90;;;;;;4993832;28;20057;-54
2021/04/13 02:11:09;;;;;;;3.38;2.38;;;9.90;99.90;;;;;;4993919;28;20061;-60
2021/04/13 02:13:48;;;;;;;3.97;2.85;;;9.90;99.90;;;;;;4993585;28;20058;-59
2021/04/13 02:16:34;;;;;;;3.55;2.47;;;10.20;99.90;;;;;;4962654;28;20165;-50
2021/04/13 02:19:01;;;;;;;3.83;2.85;;;;;;;;;;4993833;28;20030;-58
2021/04/13 02:21:34;;;;;;;5.60;3.40;;;10.20;99.90;;;;;;4993548;28;20045;-61
2021/04/13 02:24:10;;;;;;;4.68;3.13;;;10.20;99.90;;;;;;4945023;28;20078;-54
2021/04/13 02:26:51;;;;;;;4.85;3.28;;;10.30;99.90;;;;;;4961790;28;20355;-60
2021/04/13 02:29:18;;;;;;;4.13;2.67;;;10.40;99.90;;;;;;4993240;28;20555;-62
2021/04/13 02:31:53;;;;;;;5.10;2.92;;;10.30;99.90;;;;;;4993497;28;20038;-60
2021/04/13 02:34:36;;;;;;;2.40;1.60;;;10.20;99.90;;;;;;4993307;28;20114;-59
2021/04/13 02:37:18;;;;;;;4.22;2.97;;;10.00;99.90;;;;;;5019641;28;20514;-61
2021/04/13 02:39:44;;;;;;;;;;;10.00;99.90;;;;;;4974280;28;20039;-53
2021/04/13 02:42:17;;;;;;;5.20;3.90;;;10.10;99.90;;;;;;4973757;28;19913;-55
2021/04/13 02:45:00;;;;;;;4.03;2.42;;;10.10;99.90;;;;;;4970658;28;20086;-60
2021/04/13 02:47:27;;;;;;;6.45;3.85;;;10.00;99.90;;;;;;4973417;28;20034;-58
2021/04/13 02:49:57;;;;;;;6.57;3.40;;;10.00;99.90;;;;;;4973421;28;20030;-62
2021/04/13 02:52:30;;;;;;;4.00;3.08;;;9.90;99.90;;;;;;4957419;28;20071;-61
2021/04/13 02:55:00;;;;;;;1.95;1.83;;;9.70;99.90;;;;;;4957301;28;20031;-59
2021/04/13 02:57:45;;;;;;;3.40;2.17;;;9.30;99.90;;;;;;4973378;28;20030;-56
2021/04/13 03:00:37;;;;;;;2.67;2.00;;;;;;;;;;4957246;28;20529;-58
2021/04/13 03:03:12;;;;;;;2.50;1.55;;;9.10;99.90;;;;;;4971499;28;20035;-54
2021/04/13 03:05:40;;;;;;;2.05;1.48;;;9.00;99.90;;;;;;4973268;28;20114;-64
2021/04/13 03:08:07;;;;;;;5.25;2.55;;;;;;;;;;4957124;28;20039;-60
2021/04/13 03:10:37;;;;;;;5.40;2.47;;;8.90;99.90;;;;;;4999654;28;20381;-55
2021/04/13 03:13:13;;;;;;;3.35;2.47;;;8.90;99.90;;;;;;5034305;28;20043;-61
2021/04/13 03:15:40;;;;;;;3.28;2.15;;;8.90;99.90;;;;;;5034126;28;20049;-53
2021/04/13 03:18:09;;;;;;;4.05;2.17;;;;;;;;;;4982949;28;20033;-60
2021/04/13 03:20:42;;;;;;;3.72;2.35;;;9.00;99.90;;;;;;5033975;28;20084;-58
2021/04/13 03:23:09;;;;;;;3.40;1.88;;;9.00;99.90;;;;;;4984651;28;20037;-53
2021/04/13 03:25:40;;;;;;;4.40;2.83;;;8.80;99.90;;;;;;5033765;28;20034;-57
2021/04/13 03:28:08;;;;;;;3.70;3.00;;;8.80;99.90;;;;;;5033576;28;20413;-53
2021/04/13 03:30:37;;;;;;;2.50;1.90;;;8.90;99.90;;;;;;5034072;28;20036;-51
2021/04/13 03:33:13;;;;;;;3.15;2.10;;;8.80;99.90;;;;;;5033964;28;20057;-59
2021/04/13 03:35:40;;;;;;;2.97;1.95;;;8.60;99.90;;;;;;5033972;28;20349;-60
2021/04/13 03:38:09;;;;;;;5.93;3.42;;;8.60;99.90;;;;;;5033931;28;20060;-48
2021/04/13 03:40:37;;;;;;;3.42;2.45;;;8.60;99.90;;;;;;5034161;28;20029;-55
2021/04/13 03:43:05;;;;;;;3.28;2.53;;;;;;;;;;5033686;28;20025;-62
2021/04/13 03:45:33;;;;;;;4.88;2.83;;;8.70;99.90;;;;;;5033645;28;20044;-55
2021/04/13 03:48:24;;;;;;;3.65;2.05;;;8.80;99.90;;;;;;4983544;28;20042;-50
2021/04/13 03:51:06;;;;;;;3.63;3.05;;;8.70;99.90;;;;;;5033478;28;20076;-53
2021/04/13 03:53:41;;;;;;;3.50;2.50;;;8.80;99.90;;;;;;5033567;28;20025;-60
2021/04/13 03:56:10;;;;;;;2.67;1.75;;;8.90;99.90;;;;;;5033361;28;20026;-57
2021/04/13 03:58:41;;;;;;;3.60;2.78;;;8.70;99.90;;;;;;5033499;28;20025;-55
2021/04/13 04:01:10;;;;;;;3.10;2.33;;;8.80;99.90;;;;;;5033671;28;20508;-62
2021/04/13 04:03:40;;;;;;;4.38;2.30;;;8.70;99.90;;;;;;4982173;28;20113;-53
2021/04/13 04:06:06;;;;;;;5.03;2.50;;;8.80;99.90;;;;;;5033432;28;20041;-65
2021/04/13 04:08:42;;;;;;;4.78;2.35;;;8.80;99.90;;;;;;4982586;28;20041;-59
2021/04/13 04:11:09;;;;;;;4.00;2.65;;;9.00;99.90;;;;;;4980414;28;20095;-61
2021/04/13 04:13:53;;;;;;;4.18;2.78;;;9.20;99.90;;;;;;5013610;28;20045;-57
2021/04/13 04:16:30;;;;;;;4.82;3.13;;;9.30;99.90;;;;;;5013589;28;20054;-57
2021/04/13 04:19:09;;;;;;;4.85;2.95;;;9.30;99.90;;;;;;4946588;28;20060;-58
2021/04/13 04:21:37;;;;;;;5.47;3.17;;;9.30;99.90;;;;;;5013729;28;20022;-59
2021/04/13 04:24:31;;;;;;;4.40;3.08;;;9.40;99.90;;;;;;4995697;28;20463;-58
2021/04/13 04:27:03;;;;;;;3.97;2.53;;;9.30;99.90;;;;;;4920841;29;20590;-65
2021/04/13 04:29:29;;;;;;;;;;;9.20;99.90;;;;;;4937334;29;20150;-53
2021/04/13 04:31:56;;;;;;;3.55;2.67;;;9.30;99.90;;;;;;4953058;29;19907;-49
2021/04/13 04:34:21;;;;;;;3.05;2.35;;;9.10;99.90;;;;;;4952912;29;20375;-58
2021/04/13 04:36:52;;;;;;;4.32;2.70;;;9.20;99.90;;;;;;4953058;29;20110;-56
2021/04/13 04:39:32;;;;;;;3.75;2.25;;;9.20;99.90;;;;;;4936955;29;20078;-56
2021/04/13 04:42:08;;;;;;;4.47;2.70;;;9.10;99.90;;;;;;4936676;29;20035;-55
2021/04/13 04:44:34;;;;;;;3.17;2.33;;;9.20;99.90;;;;;;4953025;29;20102;-55
2021/04/13 04:47:00;;;;;;;3.80;2.35;;;9.20;99.90;;;;;;4952816;29;20467;-60
2021/04/13 04:49:39;;;;;;;3.83;2.70;;;9.20;99.90;;;;;;4936440;29;20063;-66
2021/04/13 04:52:05;;;;;;;3.90;2.70;;;9.10;99.90;;;;;;4936934;29;20043;-56
2021/04/13 04:54:31;;;;;;;5.38;2.78;;;9.00;99.90;;;;;;4952955;29;20035;-59
2021/04/13 04:56:57;;;;;;;2.85;2.00;;;9.10;99.90;;;;;;4942114;28;20114;-57
2021/04/13 04:59:23;;;;;;;3.22;2.47;;;9.10;99.90;;;;;;5013216;28;20032;-64
2021/04/13 05:01:49;;;;;;;3.22;2.25;;;;;;;;;;5013468;28;20029;-55
2021/04/13 05:04:15;;;;;;;2.40;2.13;;;9.10;99.90;;;;;;5013198;28;20026;-56
2021/04/13 05:06:41;;;;;;;4.03;2.30;;;8.80;99.90;;;;;;5013250;28;20469;-57
2021/04/13 05:09:06;;;;;;;4.80;2.65;;;8.90;99.90;;;;;;4996136;28;20065;-50
2021/04/13 05:11:32;;;;;;;4.00;2.80;;;9.00;99.90;;;;;;5016741;28;20396;-63
2021/04/13 05:13:59;;;;;;;4.47;2.25;;;8.70;99.90;;;;;;4933958;28;20080;-58
2021/04/13 05:16:24;;;;;;;3.72;2.13;;;8.60;99.90;;;;;;5016559;28;20085;-59
2021/04/13 05:18:50;;;;;;;3.83;2.40;;;8.60;99.90;;;;;;5016659;28;20062;-54
2021/04/13 05:21:17;;;;;;;2.78;2.17;;;8.80;99.90;;;;;;4966090;28;20045;-52
2021/04/13 05:23:43;;;;;;;4.00;2.63;;;8.70;99.90;;;;;;5016522;28;20461;-59
2021/04/13 05:26:09;;;;;;;4.15;2.72;;;8.80;99.90;;;;;;4998833;28;20056;-49
2021/04/13 05:28:36;;;;;;;3.72;2.67;;;8.90;99.90;;;;;;5016609;28;20414;-47
2021/04/13 05:31:02;;;;;;;2.80;2.15;;;9.10;99.90;;;;;;5016868;28;20034;-49
2021/04/13 05:33:28;;;;;;;3.83;2.20;;;9.10;99.90;;;;;;5016053;28;20034;-50
2021/04/13 05:35:55;;;;;;;3.67;2.67;;;9.00;99.90;;;;;;5016436;28;20558;-50
2021/04/13 05:38:33;;;;;;;3.35;2.60;;;9.10;99.90;;;;;;5016099;28;20044;-48
2021/04/13 05:41:04;;;;;;;3.95;2.45;;;9.20;99.90;;;;;;5016132;28;20026;-47
2021/04/13 05:43:31;;;;;;;3.63;2.45;;;9.00;99.90;;;;;;5016018;28;20022;-49
2021/04/13 05:45:59;;;;;;;3.28;2.22;;;8.80;99.90;;;;;;4981508;28;20073;-49
2021/04/13 05:48:25;;;;;;;3.90;2.75;;;8.80;99.90;;;;;;5015857;28;20113;-48
2021/04/13 05:50:52;;;;;;;3.08;2.30;;;8.90;99.90;;;;;;5016267;28;20030;-51
2021/04/13 05:53:18;;;;;;;3.20;2.50;;;8.80;99.90;;;;;;5016215;28;20053;-49
2021/04/13 05:55:44;;;;;;;3.25;2.63;;;8.90;99.90;;;;;;5015656;28;20511;-49
2021/04/13 05:58:18;;;;;;;3.35;2.35;;;8.80;99.90;;;;;;4965487;28;20137;-48
2021/04/13 06:00:47;;;;;;;3.92;2.80;;;9.00;99.90;;;;;;4978967;28;20129;-46
2021/04/13 06:03:16;;;;;;;4.05;2.42;;;9.10;99.90;;;;;;5015201;28;20543;-52
2021/04/13 06:05:42;;;;;;;1.83;1.60;;;9.10;99.90;;;;;;5015654;28;20038;-49
2021/04/13 06:08:10;;;;;;;3.85;2.42;;;9.10;99.90;;;;;;5015674;28;20084;-49
2021/04/13 06:10:36;;;;;;;3.90;2.42;;;9.10;99.90;;;;;;5015594;28;20041;-49
2021/04/13 06:13:02;;;;;;;2.78;2.15;;;9.00;99.90;;;;;;4965133;28;20393;-51
2021/04/13 06:15:29;;;;;;;3.13;2.17;;;9.00;99.90;;;;;;5015459;28;20513;-49
2021/04/13 06:17:56;;;;;;;4.47;2.92;;;8.90;99.90;;;;;;5015280;28;20112;-49
2021/04/13 06:20:23;;;;;;;4.88;2.97;;;8.90;99.90;;;;;;5015660;28;20037;-52
2021/04/13 06:22:50;;;;;;;3.45;2.63;;;9.00;99.90;;;;;;5015414;28;20084;-52
2021/04/13 06:25:22;;;;;;;4.20;3.05;;;8.90;99.90;;;;;;5015067;28;20052;-49
2021/04/13 06:27:48;;;;;;;;;;;9.10;99.90;;;;;;5015785;28;20439;-48
2021/04/13 06:30:16;;;;;;;3.72;2.30;;;8.80;99.90;;;;;;5015356;28;19909;-48
2021/04/13 06:32:41;;;;;;;4.68;2.50;;;8.90;99.90;;;;;;4973552;28;20061;-49
2021/04/13 06:35:08;;;;;;;3.33;2.30;;;8.80;99.90;;;;;;4974080;28;20051;-49
2021/04/13 06:37:38;;;;;;;3.13;2.45;;;8.80;99.90;;;;;;4973903;28;20114;-47
2021/04/13 06:40:06;;;;;;;3.70;2.45;;;9.10;99.90;;;;;;4973431;28;20452;-50
2021/04/13 06:43:13;;;;;;;2.60;2.13;;;9.20;99.90;;;;;;4941955;28;20426;-48
2021/04/13 06:46:17;;;;;;;2.85;2.28;;;8.80;99.90;;;;;;4971692;28;20042;-48
2021/04/13 06:49:13;;;;;;;3.85;2.55;;;8.90;99.90;;;;;;4966834;28;20043;-52
2021/04/13 06:51:59;;;;;;;5.47;3.42;;;9.00;99.90;;;;;;4973579;28;20402;-49
2021/04/13 06:54:31;;;;;;;4.05;2.20;;;;;;;;;;4973349;28;20477;-48
2021/04/13 06:56:57;;;;;;;;;;;;;;;;;;4941881;28;20073;-51
2021/04/13 06:59:52;;;;;;;3.90;2.58;;;9.10;99.90;;;;;;4973338;28;19941;-49
2021/04/13 07:02:38;;;;;;;2.75;2.10;;;9.10;99.90;;;;;;4972072;28;20446;-48
2021/04/13 07:05:11;;;;;;;3.75;3.08;;;9.20;99.90;;;;;;5004137;28;20136;-51
2021/04/13 07:08:12;;;;;;;3.08;2.45;;;9.00;99.90;;;;;;5014487;28;20069;-48
2021/04/13 07:10:46;;;;;;;3.38;2.13;;;9.20;99.90;;;;;;4934424;29;20043;-52
2021/04/13 07:13:22;;;;;;;4.57;3.15;;;9.10;99.90;;;;;;4934840;29;20122;-50
2021/04/13 07:16:15;;;;;;;3.22;2.38;;;9.20;99.90;;;;;;4934618;29;20518;-51
2021/04/13 07:18:57;;;;;;;2.80;2.17;;;9.30;99.90;;;;;;4934645;29;20433;-50
2021/04/13 07:21:52;;;;;;;2.45;2.03;;;9.00;99.90;;;;;;4914574;29;20098;-47
2021/04/13 07:24:30;;;;;;;2.10;1.77;;;9.10;99.90;;;;;;4917795;29;20423;-45
2021/04/13 07:27:12;;;;;;;4.30;2.80;;;8.90;99.90;;;;;;4921435;29;20043;-46
2021/04/13 07:29:56;;;;;;;2.90;1.90;;;9.10;99.90;;;;;;4934414;29;20119;-49
2021/04/13 07:32:24;;;;;;;2.28;1.77;;;9.10;99.90;;;;;;4932626;29;20039;-45
2021/04/13 07:34:55;;;;;;;4.55;2.88;;;9.00;99.90;;;;;;4934254;29;20228;-48
2021/04/13 07:37:34;;;;;;;4.47;2.97;;;9.30;99.90;;;;;;4934291;29;20066;-49
2021/04/13 07:40:10;;;;;;;4.10;2.70;;;9.50;99.90;;;;;;4931174;29;20053;-45
2021/04/13 07:42:39;;;;;;;5.43;3.13;;;9.40;99.90;;;;;;4889406;29;20039;-48
2021/04/13 07:45:42;;;;;;;4.40;2.90;;;9.50;99.90;;;;;;4877536;29;20501;-48
2021/04/13 07:48:13;;;;;;;4.75;3.20;;;9.60;99.90;;;;;;4937352;29;20065;-48
2021/04/13 07:51:00;;;;;;;5.15;3.33;;;9.80;99.90;;;;;;4937252;29;20078;-48
2021/04/13 07:53:26;;;;;;;6.57;2.35;;;;;;;;;;4949593;29;20039;-47
2021/04/13 07:56:06;;;;;;;4.00;2.50;;;10.10;99.90;;;;;;4953131;29;20058;-47
2021/04/13 07:59:01;;;;;;;3.75;2.90;;;9.80;99.90;;;;;;4953203;29;20580;-50
2021/04/13 08:01:26;;;;;;;3.05;2.30;;;9.60;99.90;;;;;;4936866;29;20047;-50
2021/04/13 08:03:52;;;;;;;3.20;2.45;;;9.70;99.90;;;;;;4953153;29;20035;-53
2021/04/13 08:06:27;;;;;;;5.15;3.17;;;9.80;99.90;;;;;;4953095;29;20059;-53
2021/04/13 08:09:13;;;;;;;5.28;3.35;;;;;;;;;;4936628;29;20497;-53
2021/04/13 08:12:05;;;;;;;4.93;3.22;;;10.00;99.90;;;;;;4953008;29;20101;-54
2021/04/13 08:14:34;;;;;;;4.93;3.40;;;10.10;99.90;;;;;;4953359;29;20031;-52
2021/04/13 08:17:13;;;;;;;8.00;3.45;;;10.00;99.90;;;;;;4948514;29;20043;-55
2021/04/13 08:19:39;;;;;;;3.58;2.63;;;10.00;99.90;;;;;;4953183;29;20102;-54
2021/04/13 08:22:21;;;;;;;3.10;2.28;;;10.00;99.90;;;;;;4921015;29;20510;-54
2021/04/13 08:24:48;;;;;;;2.63;1.88;;;9.70;99.90;;;;;;4952665;29;20039;-54
2021/04/13 08:27:45;;;;;;;3.40;2.58;;;9.40;99.90;;;;;;4936948;29;20143;-54
2021/04/13 08:30:34;;;;;;;4.45;2.95;;;9.50;99.90;;;;;;4952613;29;20053;-56
2021/04/13 08:33:26;;;;;;;4.50;2.90;;;9.60;99.90;;;;;;4952826;29;20043;-54
2021/04/13 08:36:00;;;;;;;3.35;2.40;;;9.50;99.90;;;;;;4952893;29;20035;-54
2021/04/13 08:38:32;;;;;;;3.50;2.50;;;9.50;99.90;;;;;;4936520;29;20086;-57
2021/04/13 08:41:22;;;;;;;4.65;3.00;;;9.30;99.90;;;;;;4953060;29;20035;-55
2021/04/13 08:43:51;;;;;;;4.25;3.00;;;9.50;99.90;;;;;;4955382;28;20059;-57
2021/04/13 08:46:48;;;;;;;7.30;3.88;;;9.60;99.90;;;;;;4956511;29;20491;-54
2021/04/13 08:49:32;;;;;;;7.20;3.72;;;9.70;99.90;;;;;;4918403;29;20598;-52
2021/04/13 08:52:18;;;;;;;5.25;3.63;;;9.70;99.90;;;;;;4918502;29;20484;-54
2021/04/13 08:54:48;;;;;;;4.22;3.05;;;9.70;99.90;;;;;;4917964;29;20044;-51
2021/04/13 08:57:21;;;;;;;7.90;4.22;;;9.50;99.90;;;;;;4896557;29;20044;-53
2021/04/13 08:59:55;;;;;;;4.68;3.10;;;9.30;99.90;;;;;;4913327;29;20427;-54
2021/04/13 09:02:25;;;;;;;4.28;3.28;;;9.40;99.90;;;;;;4867567;29;20128;-56
2021/04/13 09:05:20;;;;;;;4.07;2.65;;;9.30;99.90;;;;;;4870228;29;20058;-56
2021/04/13 09:07:46;;;;;;;4.05;2.97;;;9.40;99.90;;;;;;4870584;29;20049;-55
2021/04/13 09:10:42;;;;;;;4.13;2.78;;;9.50;99.90;;;;;;4871177;29;20114;-54
2021/04/13 09:13:28;;;;;;;4.43;2.80;;;9.40;99.90;;;;;;4838046;29;20045;-56
2021/04/13 09:16:00;;;;;;;4.47;3.30;;;9.30;99.90;;;;;;4877667;29;20056;-55
2021/04/13 09:18:30;;;;;;;4.78;3.03;;;9.70;99.90;;;;;;4880635;29;20061;-57
2021/04/13 09:21:14;;;;;;;5.10;3.15;;;9.90;99.90;;;;;;4880399;29;20033;-55
2021/04/13 09:23:48;;;;;;;4.07;3.05;;;9.90;99.90;;;;;;4880215;29;20074;-54
2021/04/13 09:26:39;;;;;;;3.95;2.70;;;9.70;99.90;;;;;;4905405;29;20047;-55
2021/04/13 09:29:27;;;;;;;4.30;3.30;;;9.80;99.90;;;;;;4955937;29;20043;-56
2021/04/13 09:31:53;;;;;;;5.03;3.53;;;9.90;99.90;;;;;;4955220;29;20046;-56
2021/04/13 09:34:25;;;;;;;5.18;3.20;;;9.90;99.90;;;;;;4992981;28;20046;-54
2021/04/13 09:37:27;;;;;;;4.88;3.55;;;10.10;99.90;;;;;;4996425;28;20405;-55
2021/04/13 09:40:15;;;;;;;7.05;4.25;;;10.20;99.90;;;;;;4907147;29;20084;-56
2021/04/13 09:43:08;;;;;;;4.00;3.47;;;9.90;99.90;;;;;;4882957;29;20056;-55
2021/04/13 09:45:46;;;;;;;4.90;3.30;;;10.00;99.90;;;;;;4866938;29;20528;-56
2021/04/13 09:48:30;;;;;;;4.82;3.25;;;10.00;99.90;;;;;;4861260;29;20519;-53
2021/04/13 09:51:03;;;;;;;5.28;3.55;;;;;;;;;;4861353;29;20494;-57
2021/04/13 09:54:05;;;;;;;52.22;20.02;;;10.00;99.90;;;;;;4860800;29;20529;-55
2021/04/13 09:56:50;;;;;;;10.07;5.97;;;9.90;99.90;;;;;;4861218;29;20586;-54
2021/04/13 09:59:46;;;;;;;97.05;43.45;;;10.00;99.90;;;;;;4860832;29;20555;-55
2021/04/13 10:02:19;;;;;;;10.48;6.63;;;9.80;99.90;;;;;;4860675;29;20042;-55
2021/04/13 10:05:02;;;;;;;5.97;3.63;;;9.80;99.90;;;;;;4861078;29;20074;-51
2021/04/13 10:07:30;;;;;;;12.95;4.95;;;9.60;99.90;;;;;;4860626;29;20129;-52
2021/04/13 10:09:58;;;;;;;7.35;5.43;;;9.70;99.90;;;;;;4861037;29;20056;-53
2021/04/13 10:12:42;;;;;;;5.40;4.13;;;9.60;99.90;;;;;;4845438;29;20053;-54
2021/04/13 10:15:47;;;;;;;5.72;3.63;;;9.50;99.90;;;;;;4866175;29;20366;-55
2021/04/13 10:18:32;;;;;;;4.65;3.30;;;9.70;99.90;;;;;;4885813;29;20040;-52
2021/04/13 10:21:04;;;;;;;5.10;3.92;;;9.40;99.90;;;;;;4936149;29;20028;-52
2021/04/13 10:23:50;;;;;;;5.88;3.88;;;9.50;99.90;;;;;;4936003;29;20036;-54
2021/04/13 10:26:40;;;;;;;6.25;3.88;;;9.50;99.90;;;;;;4935662;29;20024;-54
2021/04/13 10:29:14;;;;;;;6.20;3.78;;;9.40;99.90;;;;;;4919575;29;20527;-51
2021/04/13 10:32:18;;;;;;;6.07;4.00;;;9.50;99.90;;;;;;4942036;29;20059;-52
2021/04/13 10:35:11;;;;;;;6.72;3.90;;;9.60;99.90;;;;;;4922626;29;20507;-50
2021/04/13 10:38:14;;;;;;;6.13;4.45;;;9.50;99.90;;;;;;4935480;29;20464;-52
2021/04/13 10:41:06;;;;;;;7.05;4.32;;;9.40;99.90;;;;;;4936156;29;20460;-53
2021/04/13 10:43:41;;;;;;;5.60;3.78;;;9.30;99.90;;;;;;4935334;29;20044;-53
2021/04/13 10:46:22;;;;;;;4.93;3.20;;;9.20;99.90;;;;;;4935422;29;20042;-54
2021/04/13 10:49:07;;;;;;;5.35;3.95;;;9.10;99.90;;;;;;4953174;28;20043;-52
2021/04/13 10:52:11;;;;;;;4.40;3.28;;;9.10;99.90;;;;;;4975943;28;20450;-54
2021/04/13 10:54:43;;;;;;;5.65;3.88;;;9.10;99.90;;;;;;4976404;28;20031;-55
2021/04/13 10:57:44;;;;;;;13.52;6.30;;;9.30;99.90;;;;;;4941967;28;20045;-54
2021/04/13 11:00:28;;;;;;;27.60;10.43;;;9.30;99.90;;;;;;4975495;28;20522;-56
2021/04/13 11:02:57;;;;;;;34.22;11.57;;;9.30;99.90;;;;;;4975900;28;20034;-57
2021/04/13 11:05:42;;;;;;;15.57;6.53;;;9.20;99.90;;;;;;4957665;28;20042;-52
2021/04/13 11:08:49;;;;;;;44.40;15.27;;;9.20;99.90;;;;;;4975470;28;20151;-51
2021/04/13 11:11:47;;;;;;;6.38;3.95;;;9.30;99.90;;;;;;4975825;28;20023;-53
2021/04/13 11:14:42;;;;;;;7.03;4.32;;;9.30;99.90;;;;;;4975492;28;20062;-54
2021/04/13 11:17:30;;;;;;;5.57;3.53;;;9.30;99.90;;;;;;4994894;28;20050;-54
2021/04/13 11:20:17;;;;;;;21.60;8.45;;;9.20;99.90;;;;;;4995024;28;20026;-54
2021/04/13 11:23:14;;;;;;;19.70;6.63;;;9.30;99.90;;;;;;4994995;28;20038;-52
2021/04/13 11:26:16;;;;;;;8.82;4.15;;;9.10;99.90;;;;;;4979854;28;20113;-55
2021/04/13 11:29:05;;;;;;;14.23;5.88;;;8.90;99.90;;;;;;4995563;28;20121;-52
2021/04/13 11:31:34;;;;;;;11.20;6.15;;;9.00;99.90;;;;;;4976267;28;20049;-49
2021/04/13 11:34:24;;;;;;;6.10;3.65;;;9.00;99.90;;;;;;4994634;28;20465;-52
2021/04/13 11:37:26;;;;;;;5.18;3.67;;;9.00;99.90;;;;;;4994376;28;20161;-54
2021/04/13 11:40:19;;;;;;;5.68;3.92;;;9.30;99.90;;;;;;4994509;28;20041;-52
2021/04/13 11:42:48;;;;;;;5.03;3.42;;;9.40;99.90;;;;;;5010394;28;20086;-55
2021/04/13 11:45:25;;;;;;;6.53;4.10;;;9.20;99.90;;;;;;5013580;28;20030;-54
2021/04/13 11:48:12;;;;;;;6.30;3.92;;;9.20;99.90;;;;;;5013925;28;20038;-52
2021/04/13 11:50:45;;;;;;;5.35;4.03;;;9.30;99.90;;;;;;4962994;28;20042;-54
2021/04/13 11:53:26;;;;;;;4.10;3.33;;;9.30;99.90;;;;;;4995887;28;20072;-53
2021/04/13 11:55:54;;;;;;;7.75;4.65;;;9.30;99.90;;;;;;5013872;28;20107;-52
2021/04/13 11:58:23;;;;;;;6.88;4.03;;;9.20;99.90;;;;;;5013480;28;20037;-54
2021/04/13 12:01:18;;;;;;;6.22;3.20;;;9.40;99.90;;;;;;4979442;28;20048;-54
2021/04/13 12:04:04;;;;;;;6.13;4.20;;;9.10;99.90;;;;;;5013718;28;20030;-53
2021/04/13 12:06:54;;;;;;;5.13;3.60;;;9.40;99.90;;;;;;5013636;28;20450;-56
2021/04/13 12:09:39;;;;;;;5.93;3.70;;;;;;;;;;5010768;28;20042;-55
2021/04/13 12:12:07;;;;;;;5.60;3.88;;;9.40;99.90;;;;;;5013428;28;20022;-50
2021/04/13 12:14:40;;;;;;;4.85;3.08;;;9.40;99.90;;;;;;4978832;28;20034;-52
2021/04/13 12:17:10;;;;;;;3.83;3.08;;;9.50;99.90;;;;;;5010264;28;20497;-56
2021/04/13 12:19:36;;;;;;;4.30;3.17;;;9.30;99.90;;;;;;4972464;28;20498;-54
2021/04/13 12:22:38;;;;;;;4.38;3.25;;;9.40;99.90;;;;;;4940279;28;20043;-56
2021/04/13 12:25:24;;;;;;;6.43;3.40;;;9.30;99.90;;;;;;4940445;28;20047;-55
2021/04/13 12:28:11;;;;;;;5.85;3.08;;;9.20;99.90;;;;;;4971985;28;20090;-50
2021/04/13 12:30:43;;;;;;;10.32;5.32;;;9.20;99.90;;;;;;4908743;28;20038;-53
2021/04/13 12:33:29;;;;;;;4.18;2.75;;;8.80;99.90;;;;;;4972502;28;20023;-52
2021/04/13 12:36:08;;;;;;;18.48;9.18;;;9.00;99.90;;;;;;4882273;29;20147;-52
2021/04/13 12:38:43;;;;;;;11.13;6.30;;;9.00;99.90;;;;;;4914194;29;20063;-55
2021/04/13 12:41:17;;;;;;;12.35;6.15;;;9.00;99.90;;;;;;4921348;29;20522;-51
2021/04/13 12:43:44;;;;;;;20.88;9.23;;;8.80;99.90;;;;;;4918545;29;20191;-52
2021/04/13 12:46:31;;;;;;;7.47;4.60;;;8.80;99.90;;;;;;4926851;29;20051;-51
2021/04/13 12:49:01;;;;;;;7.88;4.85;;;9.10;99.90;;;;;;4920521;29;20419;-54
2021/04/13 12:51:34;;;;;;;3.65;2.65;;;9.20;99.90;;;;;;4934880;29;20031;-52
2021/04/13 12:54:13;;;;;;;3.17;2.15;;;9.10;99.90;;;;;;4942681;29;20070;-53
2021/04/13 12:56:39;;;;;;;6.03;3.50;;;8.90;99.90;;;;;;4933671;29;20130;-56
2021/04/13 12:59:17;;;;;;;5.80;3.53;;;8.80;99.90;;;;;;4940642;29;20035;-51
2021/04/13 13:01:46;;;;;;;3.60;2.70;;;9.10;99.90;;;;;;4940564;29;20032;-50
2021/04/13 13:04:16;;;;;;;7.45;4.15;;;8.80;99.90;;;;;;4938607;29;20519;-57
2021/04/13 13:06:54;;;;;;;7.55;4.80;;;8.80;99.90;;;;;;4931480;29;20035;-55
2021/04/13 13:09:29;;;;;;;8.98;5.60;;;8.70;99.90;;;;;;4932223;29;20110;-51
2021/04/13 13:12:17;;;;;;;22.33;10.35;;;8.90;99.90;;;;;;4935498;28;20095;-53
2021/04/13 13:14:45;;;;;;;6.32;3.53;;;8.80;99.90;;;;;;4931994;29;20126;-52
2021/04/13 13:17:36;;;;;;;4.63;3.17;;;9.00;99.90;;;;;;4875232;29;20069;-52
2021/04/13 13:20:05;;;;;;;3.53;2.40;;;9.10;99.90;;;;;;4856849;29;20081;-55
2021/04/13 13:22:32;;;;;;;4.32;2.40;;;9.00;99.90;;;;;;4841382;29;20573;-54
2021/04/13 13:25:19;;;;;;;4.03;2.65;;;9.10;99.90;;;;;;4845388;29;20077;-52
2021/04/13 13:27:45;;;;;;;5.70;3.58;;;8.90;99.90;;;;;;4822963;29;20117;-55
2021/04/13 13:30:15;;;;;;;3.97;2.83;;;8.80;99.90;;;;;;4839703;29;20133;-53
2021/04/13 13:32:41;;;;;;;4.07;2.97;;;8.80;99.90;;;;;;4841822;29;20187;-54
2021/04/13 13:35:12;;;;;;;7.75;3.60;;;8.80;99.90;;;;;;4826286;29;20038;-52
2021/04/13 13:37:47;;;;;;;4.32;3.05;;;8.70;99.90;;;;;;4841730;29;20113;-54
2021/04/13 13:40:45;;;;;;;3.90;2.22;;;8.60;99.90;;;;;;4841739;29;20053;-53
2021/04/13 13:43:14;;;;;;;4.95;2.42;;;8.40;99.90;;;;;;4822967;29;20372;-52
2021/04/13 13:45:43;;;;;;;5.38;3.70;;;8.60;99.90;;;;;;4807878;29;20083;-55
2021/04/13 13:48:15;;;;;;;4.05;2.85;;;8.60;99.90;;;;;;4831978;29;20053;-52
2021/04/13 13:50:42;;;;;;;4.68;2.60;;;8.70;99.90;;;;;;4856173;29;20489;-54
2021/04/13 13:53:20;;;;;;;20.55;7.55;;;;;;;;;;4916120;29;20047;-54
2021/04/13 13:56:01;;;;;;;9.43;4.20;;;8.50;99.90;;;;;;4915662;29;20035;-49
2021/04/13 13:58:33;;;;;;;3.22;2.35;;;8.40;99.90;;;;;;4900044;29;20036;-54